createdAt,value
2024-05-09T00:00:56.688Z,1.90
2024-05-09T00:01:56.575Z,1.90
2024-05-09T00:02:56.563Z,1.90
2024-05-09T00:03:56.553Z,1.90
2024-05-09T00:04:56.568Z,1.90
2024-05-09T00:05:56.522Z,1.90
2024-05-09T00:06:56.491Z,2.00
2024-05-09T00:07:56.533Z,2.00
2024-05-09T00:08:56.482Z,1.70
2024-05-09T00:09:56.478Z,2.00
2024-05-09T00:10:56.490Z,2.10
2024-05-09T00:11:56.543Z,2.10
2024-05-09T00:12:56.427Z,2.50
2024-05-09T00:13:56.471Z,2.20
2024-05-09T00:14:56.408Z,2.10
2024-05-09T00:15:56.395Z,2.20
2024-05-09T00:16:56.428Z,2.10
2024-05-09T00:17:56.635Z,2.00
2024-05-09T00:18:56.465Z,2.00
2024-05-09T00:19:56.394Z,1.90
2024-05-09T00:20:56.381Z,1.90
2024-05-09T00:21:56.318Z,2.00
2024-05-09T00:22:56.381Z,2.00
2024-05-09T00:23:56.330Z,1.90
2024-05-09T00:24:56.297Z,2.00
2024-05-09T00:25:56.329Z,2.10
2024-05-09T00:26:56.285Z,1.80
2024-05-09T00:27:56.293Z,1.70
2024-05-09T00:28:56.275Z,1.80
2024-05-09T00:29:56.315Z,2.00
2024-05-09T00:30:56.239Z,1.80
2024-05-09T00:31:56.388Z,2.20
2024-05-09T00:32:56.760Z,1.80
2024-05-09T00:33:56.388Z,2.00
2024-05-09T00:34:56.213Z,2.10
2024-05-09T00:35:56.203Z,2.00
2024-05-09T00:36:56.202Z,1.90
2024-05-09T00:37:56.233Z,2.10
2024-05-09T00:38:56.150Z,2.30
2024-05-09T00:39:56.140Z,2.40
2024-05-09T00:40:56.135Z,2.30
2024-05-09T00:41:56.138Z,1.90
2024-05-09T00:42:56.106Z,2.10
2024-05-09T00:43:56.209Z,2.00
2024-05-09T00:44:56.076Z,2.00
2024-05-09T00:45:56.104Z,2.10
2024-05-09T00:46:56.094Z,2.20
2024-05-09T00:47:56.134Z,2.30
2024-05-09T00:48:56.108Z,2.30
2024-05-09T00:49:56.073Z,2.10
2024-05-09T00:50:56.039Z,2.10
2024-05-09T00:51:56.045Z,2.10
2024-05-09T00:52:56.022Z,2.00
2024-05-09T00:53:55.997Z,2.00
2024-05-09T00:54:55.987Z,2.10
2024-05-09T00:55:56.001Z,2.20
2024-05-09T00:56:55.960Z,2.00
2024-05-09T00:57:55.953Z,2.10
2024-05-09T00:58:55.944Z,2.20
2024-05-09T00:59:55.926Z,2.20
2024-05-09T01:00:55.976Z,2.10
2024-05-09T01:01:55.995Z,2.20
2024-05-09T01:02:55.969Z,2.20
2024-05-09T01:03:56.074Z,2.20
2024-05-09T01:04:55.995Z,2.10
2024-05-09T01:05:55.995Z,2.20
2024-05-09T01:06:55.837Z,2.20
2024-05-09T01:07:55.864Z,2.20
2024-05-09T01:08:55.828Z,2.00
2024-05-09T01:09:55.828Z,2.10
2024-05-09T01:10:55.942Z,1.90
2024-05-09T01:11:55.856Z,2.10
2024-05-09T01:12:55.774Z,2.00
2024-05-09T01:13:55.855Z,2.50
2024-05-09T01:14:55.807Z,2.00
2024-05-09T01:15:55.770Z,2.40
2024-05-09T01:16:55.774Z,2.40
2024-05-09T01:17:56.290Z,1.80
2024-05-09T01:18:55.785Z,2.30
2024-05-09T01:19:55.782Z,2.10
2024-05-09T01:20:55.798Z,2.30
2024-05-09T01:21:55.691Z,2.10
2024-05-09T01:22:55.719Z,2.10
2024-05-09T01:23:55.724Z,2.10
2024-05-09T01:24:55.649Z,2.10
2024-05-09T01:25:55.725Z,2.40
2024-05-09T01:26:55.657Z,2.30
2024-05-09T01:27:55.639Z,2.20
2024-05-09T01:28:55.664Z,2.30
2024-05-09T01:29:55.619Z,2.30
2024-05-09T01:30:55.579Z,2.00
2024-05-09T01:31:55.637Z,2.00
2024-05-09T01:32:55.677Z,2.10
2024-05-09T01:33:55.689Z,2.60
2024-05-09T01:34:55.576Z,2.30
2024-05-09T01:35:55.555Z,2.10
2024-05-09T01:36:55.524Z,2.10
2024-05-09T01:37:55.580Z,2.30
2024-05-09T01:38:55.521Z,2.50
2024-05-09T01:39:55.495Z,2.30
2024-05-09T01:40:55.539Z,2.30
2024-05-09T01:41:55.519Z,2.20
2024-05-09T01:42:55.477Z,2.00
2024-05-09T01:43:55.488Z,2.30
2024-05-09T01:44:55.439Z,2.30
2024-05-09T01:45:55.440Z,2.40
2024-05-09T01:46:55.511Z,2.10
2024-05-09T01:47:55.586Z,2.40
2024-05-09T01:48:55.496Z,2.20
2024-05-09T01:49:55.428Z,2.00
2024-05-09T01:50:55.387Z,2.40
2024-05-09T01:51:55.386Z,2.40
2024-05-09T01:52:55.504Z,2.30
2024-05-09T01:53:55.340Z,2.30
2024-05-09T01:54:55.344Z,2.20
2024-05-09T01:55:55.395Z,2.50
2024-05-09T01:56:55.512Z,2.50
2024-05-09T01:57:55.302Z,2.30
2024-05-09T01:58:55.362Z,2.20
2024-05-09T01:59:55.287Z,2.40
2024-05-09T02:00:55.308Z,2.20
2024-05-09T02:01:57.609Z,2.20
2024-05-09T02:02:55.342Z,2.40
2024-05-09T02:03:55.489Z,2.20
2024-05-09T02:04:55.331Z,2.20
2024-05-09T02:05:55.340Z,2.40
2024-05-09T02:06:55.218Z,2.30
2024-05-09T02:07:55.257Z,2.20
2024-05-09T02:08:55.188Z,2.30
2024-05-09T02:09:55.210Z,2.60
2024-05-09T02:10:55.307Z,2.10
2024-05-09T02:11:55.248Z,2.30
2024-05-09T02:12:55.170Z,2.50
2024-05-09T02:13:55.191Z,2.30
2024-05-09T02:14:55.181Z,2.20
2024-05-09T02:15:55.115Z,2.20
2024-05-09T02:16:55.118Z,2.40
2024-05-09T02:17:55.428Z,2.70
2024-05-09T02:18:55.186Z,2.30
2024-05-09T02:19:55.128Z,2.40
2024-05-09T02:20:55.133Z,2.60
2024-05-09T02:21:55.065Z,2.30
2024-05-09T02:22:55.076Z,2.30
2024-05-09T02:23:55.052Z,2.40
2024-05-09T02:24:55.029Z,2.10
2024-05-09T02:25:55.096Z,2.40
2024-05-09T02:26:54.993Z,2.20
2024-05-09T02:27:54.994Z,2.50
2024-05-09T02:28:55.065Z,2.40
2024-05-09T02:29:54.970Z,2.30
2024-05-09T02:30:54.975Z,2.60
2024-05-09T02:31:55.073Z,2.50
2024-05-09T02:32:55.039Z,2.60
2024-05-09T02:33:55.102Z,2.40
2024-05-09T02:34:55.040Z,2.50
2024-05-09T02:35:54.908Z,2.40
2024-05-09T02:36:54.910Z,2.60
2024-05-09T02:37:54.943Z,2.50
2024-05-09T02:38:54.897Z,2.40
2024-05-09T02:39:54.869Z,2.70
2024-05-09T02:40:54.909Z,2.30
2024-05-09T02:41:54.836Z,2.20
2024-05-09T02:42:54.834Z,2.20
2024-05-09T02:43:54.883Z,2.30
2024-05-09T02:44:54.795Z,2.50
2024-05-09T02:45:54.802Z,3.00
2024-05-09T02:46:54.833Z,2.70
2024-05-09T02:47:55.113Z,2.40
2024-05-09T02:48:54.900Z,2.30
2024-05-09T02:49:54.752Z,2.20
2024-05-09T02:50:54.759Z,2.20
2024-05-09T02:51:54.745Z,2.40
2024-05-09T02:52:54.775Z,2.40
2024-05-09T02:53:54.710Z,2.20
2024-05-09T02:54:54.649Z,2.20
2024-05-09T02:55:54.735Z,2.70
2024-05-09T02:56:54.704Z,2.50
2024-05-09T02:57:54.683Z,2.40
2024-05-09T02:58:54.683Z,2.50
2024-05-09T02:59:54.652Z,2.60
2024-05-09T03:00:54.799Z,2.50
2024-05-09T03:01:54.712Z,2.60
2024-05-09T03:02:54.788Z,2.80
2024-05-09T03:03:54.759Z,3.20
2024-05-09T03:04:54.631Z,2.30
2024-05-09T03:05:54.559Z,2.70
2024-05-09T03:06:54.527Z,2.20
2024-05-09T03:07:54.542Z,2.50
2024-05-09T03:08:54.499Z,2.70
2024-05-09T03:09:54.482Z,2.60
2024-05-09T03:10:54.538Z,2.60
2024-05-09T03:11:54.578Z,2.50
2024-05-09T03:12:54.456Z,2.70
2024-05-09T03:13:54.490Z,2.70
2024-05-09T03:14:54.428Z,2.70
2024-05-09T03:15:54.502Z,2.40
2024-05-09T03:16:54.436Z,2.50
2024-05-09T03:17:54.574Z,2.50
2024-05-09T03:18:54.706Z,2.50
2024-05-09T03:19:54.425Z,2.60
2024-05-09T03:20:54.483Z,2.50
2024-05-09T03:21:54.353Z,2.60
2024-05-09T03:22:56.750Z,2.60
2024-05-09T03:23:54.374Z,2.80
2024-05-09T03:24:54.338Z,2.60
2024-05-09T03:25:54.435Z,2.70
2024-05-09T03:26:54.297Z,2.60
2024-05-09T03:27:54.286Z,2.80
2024-05-09T03:28:54.297Z,2.60
2024-05-09T03:29:54.280Z,2.60
2024-05-09T03:30:54.279Z,2.50
2024-05-09T03:31:54.334Z,2.70
2024-05-09T03:32:54.314Z,2.80
2024-05-09T03:33:54.336Z,2.30
2024-05-09T03:34:54.235Z,2.50
2024-05-09T03:35:54.210Z,2.40
2024-05-09T03:36:54.208Z,2.60
2024-05-09T03:37:54.188Z,2.70
2024-05-09T03:38:54.188Z,2.60
2024-05-09T03:39:54.163Z,2.60
2024-05-09T03:40:54.206Z,2.60
2024-05-09T03:41:54.144Z,2.80
2024-05-09T03:42:54.141Z,2.40
2024-05-09T03:43:54.174Z,2.80
2024-05-09T03:44:54.108Z,2.60
2024-05-09T03:45:54.092Z,2.60
2024-05-09T03:46:54.117Z,2.80
2024-05-09T03:47:54.321Z,2.40
2024-05-09T03:48:54.154Z,2.40
2024-05-09T03:49:54.171Z,2.80
2024-05-09T03:50:54.081Z,2.70
2024-05-09T03:51:54.028Z,2.70
2024-05-09T03:52:54.100Z,2.50
2024-05-09T03:53:54.025Z,2.60
2024-05-09T03:54:53.988Z,2.50
2024-05-09T03:55:54.036Z,2.60
2024-05-09T03:56:53.987Z,2.60
2024-05-09T03:57:53.975Z,2.40
2024-05-09T03:58:53.995Z,2.50
2024-05-09T03:59:53.940Z,2.60
2024-05-09T04:00:54.005Z,2.70
2024-05-09T04:01:54.031Z,2.40
2024-05-09T04:02:54.005Z,2.70
2024-05-09T04:03:54.110Z,2.80
2024-05-09T04:04:53.973Z,2.60
2024-05-09T04:05:53.901Z,2.90
2024-05-09T04:06:53.877Z,2.40
2024-05-09T04:07:53.882Z,3.00
2024-05-09T04:08:53.840Z,2.70
2024-05-09T04:09:53.845Z,2.90
2024-05-09T04:10:53.863Z,3.10
2024-05-09T04:11:54.015Z,2.60
2024-05-09T04:12:53.806Z,2.80
2024-05-09T04:13:53.837Z,3.30
2024-05-09T04:14:53.775Z,2.80
2024-05-09T04:15:53.784Z,2.50
2024-05-09T04:16:53.771Z,2.60
2024-05-09T04:17:54.050Z,3.00
2024-05-09T04:18:53.887Z,2.80
2024-05-09T04:19:53.744Z,2.90
2024-05-09T04:20:53.785Z,2.40
2024-05-09T04:21:53.713Z,2.80
2024-05-09T04:22:53.710Z,3.30
2024-05-09T04:23:53.697Z,2.70
2024-05-09T04:24:53.677Z,2.40
2024-05-09T04:25:53.721Z,2.70
2024-05-09T04:26:53.650Z,2.70
2024-05-09T04:27:53.686Z,3.10
2024-05-09T04:28:53.658Z,2.80
2024-05-09T04:29:53.658Z,2.90
2024-05-09T04:30:53.609Z,2.60
2024-05-09T04:31:53.769Z,2.70
2024-05-09T04:32:53.686Z,2.90
2024-05-09T04:33:53.795Z,3.00
2024-05-09T04:34:53.607Z,2.30
2024-05-09T04:35:53.566Z,2.60
2024-05-09T04:36:53.552Z,3.00
2024-05-09T04:37:53.562Z,2.90
2024-05-09T04:38:53.540Z,3.10
2024-05-09T04:39:53.523Z,3.20
2024-05-09T04:40:53.571Z,3.00
2024-05-09T04:41:53.494Z,2.80
2024-05-09T04:42:53.485Z,2.90
2024-05-09T04:43:53.545Z,2.60
2024-05-09T04:44:56.436Z,3.00
2024-05-09T04:45:53.457Z,2.70
2024-05-09T04:46:53.460Z,2.50
2024-05-09T04:47:53.727Z,2.50
2024-05-09T04:48:53.609Z,2.60
2024-05-09T04:49:53.424Z,2.70
2024-05-09T04:50:53.501Z,2.60
2024-05-09T04:51:53.384Z,2.60
2024-05-09T04:52:53.414Z,2.50
2024-05-09T04:53:53.425Z,2.40
2024-05-09T04:54:54.742Z,2.30
2024-05-09T04:55:53.382Z,2.60
2024-05-09T04:56:53.336Z,2.70
2024-05-09T04:57:53.335Z,2.90
2024-05-09T04:58:53.388Z,2.60
2024-05-09T04:59:53.306Z,2.80
2024-05-09T05:00:53.357Z,2.70
2024-05-09T05:01:53.413Z,3.20
2024-05-09T05:02:53.491Z,2.80
2024-05-09T05:03:54.902Z,2.80
2024-05-09T05:04:53.369Z,2.70
2024-05-09T05:05:53.240Z,2.70
2024-05-09T05:06:53.241Z,2.50
2024-05-09T05:07:53.286Z,2.40
2024-05-09T05:08:53.235Z,2.80
2024-05-09T05:09:53.186Z,2.70
2024-05-09T05:10:53.331Z,2.50
2024-05-09T05:11:53.291Z,2.60
2024-05-09T05:12:53.178Z,2.40
2024-05-09T05:13:53.197Z,2.50
2024-05-09T05:14:53.147Z,2.50
2024-05-09T05:15:53.426Z,2.70
2024-05-09T05:16:53.154Z,2.60
2024-05-09T05:17:53.223Z,2.80
2024-05-09T05:18:53.263Z,2.60
2024-05-09T05:19:53.166Z,2.90
2024-05-09T05:20:53.152Z,2.60
2024-05-09T05:21:53.060Z,2.50
2024-05-09T05:22:53.082Z,3.10
2024-05-09T05:23:53.052Z,2.50
2024-05-09T05:24:53.026Z,2.70
2024-05-09T05:25:53.898Z,2.70
2024-05-09T05:26:53.019Z,2.70
2024-05-09T05:27:53.019Z,2.30
2024-05-09T05:28:53.085Z,2.70
2024-05-09T05:29:53.015Z,2.70
2024-05-09T05:30:52.983Z,3.10
2024-05-09T05:31:53.157Z,2.60
2024-05-09T05:32:53.039Z,2.60
2024-05-09T05:33:53.055Z,2.70
2024-05-09T05:34:52.989Z,2.40
2024-05-09T05:35:52.918Z,2.60
2024-05-09T05:36:52.908Z,2.60
2024-05-09T05:37:52.923Z,2.30
2024-05-09T05:38:52.944Z,2.60
2024-05-09T05:39:52.893Z,2.80
2024-05-09T05:40:52.954Z,2.90
2024-05-09T05:41:52.845Z,2.70
2024-05-09T05:42:52.859Z,2.60
2024-05-09T05:43:52.884Z,2.60
2024-05-09T05:44:52.829Z,2.70
2024-05-09T05:45:52.806Z,3.00
2024-05-09T05:46:52.820Z,2.70
2024-05-09T05:47:53.110Z,2.60
2024-05-09T05:48:53.425Z,2.60
2024-05-09T05:49:52.797Z,2.80
2024-05-09T05:50:52.777Z,2.70
2024-05-09T05:51:52.773Z,2.60
2024-05-09T05:52:52.774Z,2.60
2024-05-09T05:53:52.738Z,2.60
2024-05-09T05:54:52.725Z,2.40
2024-05-09T05:55:52.728Z,3.00
2024-05-09T05:56:52.695Z,2.60
2024-05-09T05:57:52.727Z,2.90
2024-05-09T05:58:52.738Z,2.90
2024-05-09T05:59:52.651Z,2.80
2024-05-09T06:00:52.688Z,2.70
2024-05-09T06:01:52.680Z,2.50
2024-05-09T06:02:52.836Z,2.40
2024-05-09T06:03:52.735Z,2.80
2024-05-09T06:04:52.739Z,3.10
2024-05-09T06:05:52.656Z,2.80
2024-05-09T06:06:52.598Z,2.90
2024-05-09T06:07:52.641Z,2.60
2024-05-09T06:08:52.727Z,2.50
2024-05-09T06:09:52.549Z,2.70
2024-05-09T06:10:52.645Z,2.70
2024-05-09T06:11:52.608Z,2.70
2024-05-09T06:12:52.529Z,3.10
2024-05-09T06:13:52.534Z,2.90
2024-05-09T06:14:52.507Z,2.50
2024-05-09T06:15:52.476Z,2.70
2024-05-09T06:16:54.109Z,2.50
2024-05-09T06:17:52.549Z,2.50
2024-05-09T06:18:52.630Z,2.80
2024-05-09T06:19:52.707Z,2.60
2024-05-09T06:20:52.528Z,2.50
2024-05-09T06:21:52.443Z,2.80
2024-05-09T06:22:52.436Z,3.00
2024-05-09T06:23:52.401Z,2.80
2024-05-09T06:24:52.384Z,3.00
2024-05-09T06:25:52.388Z,2.70
2024-05-09T06:26:52.394Z,2.80
2024-05-09T06:27:52.346Z,2.60
2024-05-09T06:28:52.389Z,2.40
2024-05-09T06:29:52.327Z,2.80
2024-05-09T06:30:52.358Z,2.50
2024-05-09T06:31:52.493Z,3.50
2024-05-09T06:32:52.497Z,2.60
2024-05-09T06:33:53.336Z,2.50
2024-05-09T06:34:52.351Z,2.70
2024-05-09T06:35:52.315Z,2.70
2024-05-09T06:36:52.378Z,2.50
2024-05-09T06:37:52.252Z,2.90
2024-05-09T06:38:52.273Z,2.70
2024-05-09T06:39:52.245Z,2.90
2024-05-09T06:40:52.273Z,2.60
2024-05-09T06:41:52.238Z,2.60
2024-05-09T06:42:52.192Z,2.70
2024-05-09T06:43:52.285Z,2.70
2024-05-09T06:44:52.219Z,3.00
2024-05-09T06:45:52.167Z,2.50
2024-05-09T06:46:52.236Z,2.50
2024-05-09T06:47:52.350Z,3.00
2024-05-09T06:48:52.499Z,2.50
2024-05-09T06:49:52.210Z,2.70
2024-05-09T06:50:52.283Z,2.70
2024-05-09T06:51:52.131Z,3.30
2024-05-09T06:52:52.141Z,2.60
2024-05-09T06:53:52.091Z,2.60
2024-05-09T06:54:52.078Z,2.60
2024-05-09T06:55:52.121Z,2.80
2024-05-09T06:56:52.039Z,2.80
2024-05-09T06:57:52.024Z,2.40
2024-05-09T06:58:52.160Z,2.30
2024-05-09T06:59:52.010Z,2.30
2024-05-09T07:00:52.134Z,2.60
2024-05-09T07:01:52.029Z,2.60
2024-05-09T07:02:52.050Z,2.60
2024-05-09T07:03:52.065Z,2.50
2024-05-09T07:04:52.105Z,2.90
2024-05-09T07:05:52.012Z,2.90
2024-05-09T07:06:51.925Z,2.80
2024-05-09T07:07:51.958Z,2.60
2024-05-09T07:08:52.629Z,2.60
2024-05-09T07:09:51.896Z,2.60
2024-05-09T07:10:51.963Z,2.80
2024-05-09T07:11:51.976Z,3.00
2024-05-09T07:12:51.881Z,2.70
2024-05-09T07:13:51.871Z,2.70
2024-05-09T07:14:51.906Z,3.00
2024-05-09T07:15:51.854Z,2.50
2024-05-09T07:16:51.928Z,2.60
2024-05-09T07:17:51.986Z,2.90
2024-05-09T07:18:51.957Z,3.00
2024-05-09T07:19:51.849Z,3.00
2024-05-09T07:20:51.811Z,2.80
2024-05-09T07:21:51.787Z,2.60
2024-05-09T07:22:51.843Z,2.70
2024-05-09T07:23:51.793Z,2.70
2024-05-09T07:24:52.058Z,3.00
2024-05-09T07:25:51.840Z,2.50
2024-05-09T07:26:51.746Z,2.50
2024-05-09T07:27:51.728Z,2.20
2024-05-09T07:28:51.823Z,2.30
2024-05-09T07:29:51.686Z,2.70
2024-05-09T07:30:51.684Z,2.60
2024-05-09T07:31:51.772Z,2.50
2024-05-09T07:32:51.800Z,2.60
2024-05-09T07:33:51.704Z,2.20
2024-05-09T07:34:51.692Z,1.90
2024-05-09T07:35:51.744Z,2.10
2024-05-09T07:36:51.627Z,2.10
2024-05-09T07:37:51.716Z,1.90
2024-05-09T07:38:51.617Z,1.80
2024-05-09T07:39:51.580Z,1.80
2024-05-09T07:40:51.638Z,2.00
2024-05-09T07:41:51.562Z,1.70
2024-05-09T07:42:51.666Z,1.70
2024-05-09T07:43:51.591Z,1.70
2024-05-09T07:44:51.551Z,1.80
2024-05-09T07:45:54.380Z,2.00
2024-05-09T07:47:52.503Z,1.90
2024-05-09T07:53:32.358Z,1.90
2024-05-09T07:53:49.502Z,2.20
2024-05-09T07:54:27.047Z,1.80
2024-05-09T07:55:27.208Z,2.10
2024-05-09T07:56:27.392Z,2.00
2024-05-09T07:57:26.960Z,1.90
2024-05-09T07:58:26.907Z,2.00
2024-05-09T07:59:26.975Z,2.10
2024-05-09T08:00:30.891Z,2.10
2024-05-09T08:01:27.238Z,2.00
2024-05-09T08:02:26.974Z,1.70
2024-05-09T08:03:27.018Z,1.80
2024-05-09T08:04:27.007Z,1.80
2024-05-09T08:05:26.948Z,2.00
2024-05-09T08:06:27.169Z,1.70
2024-05-09T08:07:26.846Z,1.70
2024-05-09T08:08:26.859Z,2.10
2024-05-09T08:09:26.898Z,2.10
2024-05-09T08:10:28.982Z,1.80
2024-05-09T08:11:26.823Z,1.90
2024-05-09T08:12:26.845Z,1.80
2024-05-09T08:13:26.788Z,1.60
2024-05-09T08:14:26.770Z,1.60
2024-05-09T08:15:26.813Z,1.90
2024-05-09T08:16:26.861Z,2.00
2024-05-09T08:17:27.090Z,1.80
2024-05-09T08:18:26.885Z,1.80
2024-05-09T08:19:26.860Z,1.50
2024-05-09T08:20:31.222Z,1.80
2024-05-09T08:21:26.747Z,1.80
2024-05-09T08:22:26.675Z,1.80
2024-05-09T08:23:26.663Z,1.70
2024-05-09T08:24:26.776Z,1.90
2024-05-09T08:25:26.784Z,1.70
2024-05-09T08:26:26.631Z,2.00
2024-05-09T08:27:26.729Z,2.00
2024-05-09T08:28:26.643Z,1.90
2024-05-09T08:29:26.596Z,2.10
2024-05-09T08:30:33.407Z,1.80
2024-05-09T08:31:26.736Z,1.90
2024-05-09T08:32:27.751Z,1.70
2024-05-09T08:33:26.678Z,1.80
2024-05-09T08:34:26.686Z,1.70
2024-05-09T08:35:26.615Z,2.00
2024-05-09T08:36:26.688Z,1.60
2024-05-09T08:37:31.046Z,1.50
2024-05-09T08:38:26.492Z,2.40
2024-05-09T08:39:26.556Z,1.60
2024-05-09T08:40:33.746Z,1.80
2024-05-09T08:41:26.484Z,1.90
2024-05-09T08:42:26.562Z,1.60
2024-05-09T08:43:26.530Z,1.80
2024-05-09T08:44:26.436Z,1.90
2024-05-09T08:45:26.596Z,1.70
2024-05-09T08:46:26.530Z,2.00
2024-05-09T08:47:26.560Z,1.50
2024-05-09T08:48:26.628Z,1.70
2024-05-09T08:49:26.500Z,1.60
2024-05-09T08:50:32.529Z,1.80
2024-05-09T08:51:26.366Z,1.70
2024-05-09T08:52:26.368Z,1.50
2024-05-09T08:53:26.343Z,1.50
2024-05-09T08:54:26.358Z,1.30
2024-05-09T08:55:26.341Z,1.50
2024-05-09T08:56:26.312Z,1.40
2024-05-09T08:57:26.355Z,1.50
2024-05-09T08:58:26.364Z,1.70
2024-05-09T08:59:26.318Z,1.70
2024-05-09T09:00:34.214Z,1.60
2024-05-09T09:01:26.327Z,1.60
2024-05-09T09:02:26.464Z,2.00
2024-05-09T09:03:26.289Z,1.60
2024-05-09T09:04:26.316Z,1.50
2024-05-09T09:05:26.509Z,1.80
2024-05-09T09:06:26.228Z,1.50
2024-05-09T09:07:26.268Z,1.60
2024-05-09T09:08:26.197Z,1.80
2024-05-09T09:09:26.236Z,1.80
2024-05-09T09:10:31.903Z,1.50
2024-05-09T09:11:26.188Z,1.60
2024-05-09T09:12:26.165Z,1.80
2024-05-09T09:13:26.154Z,1.60
2024-05-09T09:14:26.149Z,1.70
2024-05-09T09:15:26.110Z,1.70
2024-05-09T09:16:26.285Z,1.90
2024-05-09T09:17:26.243Z,1.60
2024-05-09T09:18:26.268Z,2.10
2024-05-09T09:19:26.224Z,1.70
2024-05-09T09:20:33.373Z,2.00
2024-05-09T09:21:26.056Z,1.80
2024-05-09T09:22:26.054Z,1.60
2024-05-09T09:23:26.063Z,1.60
2024-05-09T09:24:26.022Z,1.80
2024-05-09T09:25:26.005Z,1.70
2024-05-09T09:26:26.004Z,1.80
2024-05-09T09:27:26.002Z,1.80
2024-05-09T09:28:26.008Z,1.70
2024-05-09T09:29:25.967Z,1.80
2024-05-09T09:30:34.832Z,2.00
2024-05-09T09:31:26.072Z,1.70
2024-05-09T09:32:26.107Z,1.80
2024-05-09T09:33:26.042Z,1.60
2024-05-09T09:34:26.017Z,2.00
2024-05-09T09:35:25.927Z,1.80
2024-05-09T09:36:25.897Z,1.80
2024-05-09T09:37:25.905Z,2.00
2024-05-09T09:38:25.878Z,2.70
2024-05-09T09:39:25.927Z,1.80
2024-05-09T09:40:31.929Z,2.00
2024-05-09T09:41:25.873Z,1.90
2024-05-09T09:42:25.859Z,1.90
2024-05-09T09:43:25.863Z,1.60
2024-05-09T09:44:25.835Z,1.60
2024-05-09T09:45:25.836Z,1.70
2024-05-09T09:46:25.946Z,1.50
2024-05-09T09:47:26.151Z,1.70
2024-05-09T09:48:25.819Z,1.50
2024-05-09T09:49:25.851Z,1.70
2024-05-09T09:50:33.295Z,1.60
2024-05-09T09:51:25.753Z,1.70
2024-05-09T09:52:25.831Z,1.90
2024-05-09T09:53:25.721Z,1.70
2024-05-09T09:54:25.713Z,1.70
2024-05-09T09:55:25.742Z,1.60
2024-05-09T09:56:25.739Z,2.00
2024-05-09T09:57:25.675Z,1.40
2024-05-09T09:58:25.882Z,1.90
2024-05-09T09:59:25.667Z,1.70
2024-05-09T10:00:30.621Z,1.70
2024-05-09T10:01:25.771Z,1.60
2024-05-09T10:02:25.778Z,1.70
2024-05-09T10:03:25.778Z,1.50
2024-05-09T10:04:26.052Z,1.70
2024-05-09T10:05:25.964Z,1.70
2024-05-09T10:06:25.590Z,1.60
2024-05-09T10:07:25.567Z,1.60
2024-05-09T10:08:25.568Z,1.70
2024-05-09T10:09:25.588Z,1.50
2024-05-09T10:10:31.673Z,1.60
2024-05-09T10:11:25.569Z,1.70
2024-05-09T10:12:25.598Z,1.90
2024-05-09T10:13:25.623Z,1.60
2024-05-09T10:14:25.536Z,1.70
2024-05-09T10:15:25.498Z,1.50
2024-05-09T10:16:25.637Z,1.80
2024-05-09T10:17:25.571Z,1.70
2024-05-09T10:18:29.110Z,1.60
2024-05-09T10:19:25.659Z,1.60
2024-05-09T10:20:30.723Z,1.50
2024-05-09T10:21:25.434Z,1.90
2024-05-09T10:22:25.482Z,2.80
2024-05-09T10:23:25.429Z,2.30
2024-05-09T10:24:25.431Z,2.00
2024-05-09T10:25:25.478Z,1.60
2024-05-09T10:26:25.400Z,1.50
2024-05-09T10:27:25.375Z,1.50
2024-05-09T10:28:25.385Z,1.50
2024-05-09T10:29:25.347Z,1.60
2024-05-09T10:30:33.802Z,1.70
2024-05-09T10:31:25.426Z,1.70
2024-05-09T10:32:25.440Z,1.50
2024-05-09T10:33:25.434Z,1.60
2024-05-09T10:34:25.664Z,1.50
2024-05-09T10:35:25.289Z,1.70
2024-05-09T10:36:25.347Z,1.50
2024-05-09T10:37:25.462Z,1.80
2024-05-09T10:38:25.303Z,1.80
2024-05-09T10:39:25.268Z,1.60
2024-05-09T10:40:31.014Z,1.50
2024-05-09T10:41:25.250Z,1.40
2024-05-09T10:42:25.222Z,1.60
2024-05-09T10:43:25.218Z,1.50
2024-05-09T10:44:25.219Z,1.80
2024-05-09T10:45:25.192Z,1.30
2024-05-09T10:46:25.248Z,1.50
2024-05-09T10:47:25.305Z,1.60
2024-05-09T10:48:25.250Z,1.50
2024-05-09T10:49:25.187Z,1.60
2024-05-09T10:50:28.740Z,1.50
2024-05-09T10:51:25.254Z,1.60
2024-05-09T10:52:25.167Z,1.60
2024-05-09T10:53:25.093Z,1.60
2024-05-09T10:54:25.522Z,1.50
2024-05-09T10:55:25.169Z,1.40
2024-05-09T10:56:25.084Z,1.80
2024-05-09T10:57:25.117Z,1.90
2024-05-09T10:58:25.095Z,1.60
2024-05-09T10:59:25.064Z,1.80
2024-05-09T11:00:30.681Z,1.70
2024-05-09T11:01:25.575Z,1.40
2024-05-09T11:02:25.226Z,1.70
2024-05-09T11:03:25.070Z,1.70
2024-05-09T11:04:25.075Z,1.70
2024-05-09T11:05:25.086Z,1.50
2024-05-09T11:06:24.975Z,1.70
2024-05-09T11:07:25.089Z,1.70
2024-05-09T11:08:25.000Z,1.40
2024-05-09T11:09:24.936Z,1.60
2024-05-09T11:10:31.597Z,1.70
2024-05-09T11:11:24.987Z,1.70
2024-05-09T11:12:25.085Z,1.60
2024-05-09T11:13:24.979Z,1.40
2024-05-09T11:14:24.900Z,1.80
2024-05-09T11:15:24.919Z,1.70
2024-05-09T11:16:24.905Z,1.70
2024-05-09T11:17:24.943Z,1.70
2024-05-09T11:18:26.187Z,1.50
2024-05-09T11:19:25.023Z,1.50
2024-05-09T11:20:29.568Z,1.80
2024-05-09T11:21:24.873Z,1.80
2024-05-09T11:22:24.861Z,1.70
2024-05-09T11:23:24.790Z,1.90
2024-05-09T11:24:24.795Z,1.80
2024-05-09T11:25:24.779Z,1.60
2024-05-09T11:26:24.756Z,1.50
2024-05-09T11:27:24.785Z,1.20
2024-05-09T11:28:24.758Z,1.50
2024-05-09T11:29:24.737Z,1.70
2024-05-09T11:30:30.071Z,1.90
2024-05-09T11:31:24.966Z,1.50
2024-05-09T11:32:24.842Z,2.10
2024-05-09T11:33:24.745Z,1.70
2024-05-09T11:34:24.746Z,1.90
2024-05-09T11:35:24.663Z,1.70
2024-05-09T11:36:24.670Z,1.90
2024-05-09T11:37:24.694Z,1.60
2024-05-09T11:38:24.657Z,1.70
2024-05-09T11:39:24.649Z,1.70
2024-05-09T11:40:28.176Z,1.70
2024-05-09T11:41:24.607Z,1.80
2024-05-09T11:42:24.595Z,1.70
2024-05-09T11:43:24.700Z,1.60
2024-05-09T11:44:24.575Z,1.60
2024-05-09T11:45:24.572Z,1.60
2024-05-09T11:46:24.608Z,1.70
2024-05-09T11:47:24.624Z,1.70
2024-05-09T11:48:24.717Z,1.40
2024-05-09T11:49:26.778Z,1.60
2024-05-09T11:50:29.948Z,1.70
2024-05-09T11:51:24.498Z,1.60
2024-05-09T11:52:24.522Z,1.60
2024-05-09T11:53:24.474Z,1.60
2024-05-09T11:54:24.479Z,1.90
2024-05-09T11:55:27.738Z,1.70
2024-05-09T11:56:24.459Z,1.60
2024-05-09T11:57:24.472Z,2.00
2024-05-09T11:58:24.482Z,2.10
2024-05-09T11:59:24.412Z,1.70
2024-05-09T12:00:33.921Z,2.00
2024-05-09T12:01:27.448Z,1.60
2024-05-09T12:02:24.562Z,1.30
2024-05-09T12:03:24.483Z,1.70
2024-05-09T12:04:24.608Z,1.70
2024-05-09T12:05:24.561Z,2.00
2024-05-09T12:06:24.357Z,2.00
2024-05-09T12:07:24.364Z,1.60
2024-05-09T12:08:24.324Z,2.00
2024-05-09T12:09:24.323Z,1.60
2024-05-09T12:10:32.531Z,1.50
2024-05-09T12:11:24.350Z,1.70
2024-05-09T12:12:24.288Z,1.40
2024-05-09T12:13:24.424Z,1.60
2024-05-09T12:14:24.256Z,1.70
2024-05-09T12:15:24.275Z,1.40
2024-05-09T12:16:24.748Z,1.60
2024-05-09T12:17:24.316Z,1.50
2024-05-09T12:18:24.264Z,1.60
2024-05-09T12:19:24.219Z,1.50
2024-05-09T12:20:32.362Z,1.50
2024-05-09T12:21:24.186Z,1.80
2024-05-09T12:22:24.217Z,1.80
2024-05-09T12:23:24.174Z,1.40
2024-05-09T12:24:24.176Z,1.50
2024-05-09T12:25:24.219Z,1.50
2024-05-09T12:26:24.143Z,1.50
2024-05-09T12:27:24.118Z,1.70
2024-05-09T12:28:24.382Z,1.80
2024-05-09T12:29:24.129Z,1.50
2024-05-09T12:30:33.107Z,1.60
2024-05-09T12:31:24.139Z,1.40
2024-05-09T12:32:24.165Z,1.40
2024-05-09T12:33:24.216Z,2.10
2024-05-09T12:34:24.138Z,1.80
2024-05-09T12:35:24.121Z,1.60
2024-05-09T12:36:24.036Z,1.50
2024-05-09T12:37:24.095Z,1.30
2024-05-09T12:38:24.071Z,1.60
2024-05-09T12:39:24.089Z,1.60
2024-05-09T12:40:34.059Z,1.50
2024-05-09T12:41:24.004Z,1.50
2024-05-09T12:42:27.425Z,1.40
2024-05-09T12:43:24.141Z,1.70
2024-05-09T12:44:24.059Z,1.40
2024-05-09T12:45:23.933Z,1.30
2024-05-09T12:46:24.099Z,1.60
2024-05-09T12:47:24.014Z,1.30
2024-05-09T12:48:24.116Z,1.60
2024-05-09T12:49:24.090Z,1.60
2024-05-09T12:50:31.045Z,1.60
2024-05-09T12:51:23.913Z,1.40
2024-05-09T12:52:24.062Z,2.00
2024-05-09T12:53:23.938Z,1.50
2024-05-09T12:54:23.844Z,1.60
2024-05-09T12:55:23.897Z,1.50
2024-05-09T12:56:23.826Z,1.40
2024-05-09T12:57:23.977Z,1.50
2024-05-09T12:58:24.035Z,1.50
2024-05-09T12:59:23.817Z,1.60
2024-05-09T13:00:28.363Z,1.50
2024-05-09T13:01:23.904Z,1.60
2024-05-09T13:02:23.884Z,1.50
2024-05-09T13:03:23.824Z,1.30
2024-05-09T13:04:23.825Z,1.60
2024-05-09T13:05:23.824Z,1.40
2024-05-09T13:06:23.894Z,1.60
2024-05-09T13:07:23.773Z,1.50
2024-05-09T13:08:23.710Z,1.80
2024-05-09T13:09:23.705Z,1.50
2024-05-09T13:10:30.808Z,1.40
2024-05-09T13:11:23.753Z,1.80
2024-05-09T13:12:24.371Z,1.70
2024-05-09T13:13:23.713Z,1.60
2024-05-09T13:14:23.657Z,1.40
2024-05-09T13:15:23.637Z,1.40
2024-05-09T13:16:23.670Z,1.40
2024-05-09T13:17:23.832Z,1.60
2024-05-09T13:18:23.625Z,1.40
2024-05-09T13:19:23.674Z,1.40
2024-05-09T13:20:31.187Z,1.50
2024-05-09T13:21:23.605Z,1.50
2024-05-09T13:22:23.566Z,1.30
2024-05-09T13:23:23.562Z,1.40